sensor_id;sensor_type;location;lat;lon;timestamp;P1;durP1;ratioP1;P2;durP2;ratioP2
55800;SDS011;41730;51.960;20.158;2022-09-04T00:01:33;8.00;;;4.30;;
55800;SDS011;41730;51.960;20.158;2022-09-04T00:04:15;7.60;;;4.20;;
55800;SDS011;41730;51.960;20.158;2022-09-04T00:07:01;7.50;;;4.20;;
55800;SDS011;41730;51.960;20.158;2022-09-04T00:09:41;8.90;;;4.80;;
55800;SDS011;41730;51.960;20.158;2022-09-04T00:12:22;8.60;;;4.80;;
55800;SDS011;41730;51.960;20.158;2022-09-04T00:14:59;10.00;;;4.40;;
55800;SDS011;41730;51.960;20.158;2022-09-04T00:17:38;12.30;;;5.10;;
55800;SDS011;41730;51.960;20.158;2022-09-04T00:20:19;7.30;;;4.30;;
55800;SDS011;41730;51.960;20.158;2022-09-04T00:22:58;9.10;;;5.00;;
55800;SDS011;41730;51.960;20.158;2022-09-04T00:25:40;8.50;;;4.60;;
55800;SDS011;41730;51.960;20.158;2022-09-04T00:28:24;9.10;;;4.60;;
55800;SDS011;41730;51.960;20.158;2022-09-04T00:31:06;8.00;;;4.90;;
55800;SDS011;41730;51.960;20.158;2022-09-04T00:33:48;9.10;;;5.30;;
55800;SDS011;41730;51.960;20.158;2022-09-04T00:36:23;7.80;;;4.70;;
55800;SDS011;41730;51.960;20.158;2022-09-04T00:38:56;7.90;;;4.90;;
55800;SDS011;41730;51.960;20.158;2022-09-04T00:41:42;8.60;;;5.00;;
55800;SDS011;41730;51.960;20.158;2022-09-04T00:44:31;12.80;;;5.10;;
55800;SDS011;41730;51.960;20.158;2022-09-04T00:50:30;7.10;;;4.30;;
55800;SDS011;41730;51.960;20.158;2022-09-04T00:53:20;7.70;;;4.40;;
55800;SDS011;41730;51.960;20.158;2022-09-04T00:59:17;9.00;;;4.40;;
55800;SDS011;41730;51.960;20.158;2022-09-04T01:02:04;8.70;;;4.90;;
55800;SDS011;41730;51.960;20.158;2022-09-04T01:04:47;8.70;;;4.40;;
55800;SDS011;41730;51.960;20.158;2022-09-04T01:07:37;8.20;;;5.00;;
55800;SDS011;41730;51.960;20.158;2022-09-04T01:10:20;11.50;;;5.60;;
55800;SDS011;41730;51.960;20.158;2022-09-04T01:13:05;9.40;;;4.70;;
55800;SDS011;41730;51.960;20.158;2022-09-04T01:15:43;10.20;;;4.10;;
55800;SDS011;41730;51.960;20.158;2022-09-04T01:18:23;8.80;;;4.40;;
55800;SDS011;41730;51.960;20.158;2022-09-04T01:21:09;7.70;;;4.40;;
55800;SDS011;41730;51.960;20.158;2022-09-04T01:27:00;9.50;;;4.40;;
55800;SDS011;41730;51.960;20.158;2022-09-04T01:29:41;8.60;;;4.00;;
55800;SDS011;41730;51.960;20.158;2022-09-04T01:32:25;9.20;;;4.80;;
55800;SDS011;41730;51.960;20.158;2022-09-04T01:35:14;11.10;;;5.00;;
55800;SDS011;41730;51.960;20.158;2022-09-04T01:37:57;8.80;;;4.60;;
55800;SDS011;41730;51.960;20.158;2022-09-04T01:40:37;6.90;;;4.70;;
55800;SDS011;41730;51.960;20.158;2022-09-04T01:43:13;9.30;;;4.80;;
55800;SDS011;41730;51.960;20.158;2022-09-04T01:46:01;9.80;;;5.10;;
55800;SDS011;41730;51.960;20.158;2022-09-04T01:48:46;7.10;;;4.40;;
55800;SDS011;41730;51.960;20.158;2022-09-04T01:51:25;7.90;;;5.00;;
55800;SDS011;41730;51.960;20.158;2022-09-04T01:54:09;8.90;;;5.00;;
55800;SDS011;41730;51.960;20.158;2022-09-04T01:56:50;8.30;;;4.60;;
55800;SDS011;41730;51.960;20.158;2022-09-04T01:59:36;8.50;;;4.80;;
55800;SDS011;41730;51.960;20.158;2022-09-04T02:02:23;9.90;;;4.70;;
55800;SDS011;41730;51.960;20.158;2022-09-04T02:05:00;12.00;;;5.10;;
55800;SDS011;41730;51.960;20.158;2022-09-04T02:07:43;7.90;;;4.70;;
55800;SDS011;41730;51.960;20.158;2022-09-04T02:10:21;9.20;;;5.00;;
55800;SDS011;41730;51.960;20.158;2022-09-04T02:13:05;9.50;;;4.70;;
55800;SDS011;41730;51.960;20.158;2022-09-04T02:15:46;6.90;;;4.10;;
55800;SDS011;41730;51.960;20.158;2022-09-04T02:18:29;8.10;;;4.40;;
55800;SDS011;41730;51.960;20.158;2022-09-04T02:21:13;8.70;;;5.10;;
55800;SDS011;41730;51.960;20.158;2022-09-04T02:23:54;13.10;;;5.10;;
55800;SDS011;41730;51.960;20.158;2022-09-04T02:26:35;9.60;;;5.00;;
55800;SDS011;41730;51.960;20.158;2022-09-04T02:29:13;8.40;;;4.90;;
55800;SDS011;41730;51.960;20.158;2022-09-04T02:31:51;10.50;;;5.30;;
55800;SDS011;41730;51.960;20.158;2022-09-04T02:34:31;9.90;;;5.00;;
55800;SDS011;41730;51.960;20.158;2022-09-04T02:37:08;7.10;;;4.80;;
55800;SDS011;41730;51.960;20.158;2022-09-04T02:39:51;7.40;;;5.00;;
55800;SDS011;41730;51.960;20.158;2022-09-04T02:42:32;7.40;;;4.80;;
55800;SDS011;41730;51.960;20.158;2022-09-04T02:45:16;8.20;;;4.30;;
55800;SDS011;41730;51.960;20.158;2022-09-04T02:47:56;8.60;;;4.60;;
55800;SDS011;41730;51.960;20.158;2022-09-04T02:50:37;8.60;;;4.90;;
55800;SDS011;41730;51.960;20.158;2022-09-04T02:53:22;8.20;;;5.20;;
55800;SDS011;41730;51.960;20.158;2022-09-04T02:56:08;8.10;;;5.40;;
55800;SDS011;41730;51.960;20.158;2022-09-04T02:58:59;10.30;;;4.70;;
55800;SDS011;41730;51.960;20.158;2022-09-04T03:01:49;10.00;;;5.20;;
55800;SDS011;41730;51.960;20.158;2022-09-04T03:04:28;9.60;;;5.00;;
55800;SDS011;41730;51.960;20.158;2022-09-04T03:07:07;10.80;;;5.60;;
55800;SDS011;41730;51.960;20.158;2022-09-04T03:09:43;7.60;;;5.00;;
55800;SDS011;41730;51.960;20.158;2022-09-04T03:12:22;8.00;;;4.70;;
55800;SDS011;41730;51.960;20.158;2022-09-04T03:15:06;9.50;;;4.80;;
55800;SDS011;41730;51.960;20.158;2022-09-04T03:17:45;8.10;;;4.80;;
55800;SDS011;41730;51.960;20.158;2022-09-04T03:20:23;7.40;;;4.80;;
55800;SDS011;41730;51.960;20.158;2022-09-04T03:22:59;10.60;;;5.60;;
55800;SDS011;41730;51.960;20.158;2022-09-04T03:25:46;8.80;;;5.20;;
55800;SDS011;41730;51.960;20.158;2022-09-04T03:28:38;8.60;;;4.80;;
55800;SDS011;41730;51.960;20.158;2022-09-04T03:31:17;7.50;;;5.10;;
55800;SDS011;41730;51.960;20.158;2022-09-04T03:34:01;9.30;;;5.00;;
55800;SDS011;41730;51.960;20.158;2022-09-04T03:36:44;6.30;;;4.60;;
55800;SDS011;41730;51.960;20.158;2022-09-04T03:39:28;7.90;;;4.70;;
55800;SDS011;41730;51.960;20.158;2022-09-04T03:42:14;9.90;;;5.20;;
55800;SDS011;41730;51.960;20.158;2022-09-04T03:45:00;10.40;;;5.20;;
55800;SDS011;41730;51.960;20.158;2022-09-04T03:47:45;8.40;;;5.20;;
55800;SDS011;41730;51.960;20.158;2022-09-04T03:50:29;9.10;;;5.70;;
55800;SDS011;41730;51.960;20.158;2022-09-04T03:53:13;7.10;;;5.10;;
55800;SDS011;41730;51.960;20.158;2022-09-04T03:56:07;8.30;;;4.90;;
55800;SDS011;41730;51.960;20.158;2022-09-04T03:58:59;7.20;;;5.10;;
55800;SDS011;41730;51.960;20.158;2022-09-04T04:01:43;9.70;;;5.10;;
55800;SDS011;41730;51.960;20.158;2022-09-04T04:07:26;7.60;;;5.40;;
55800;SDS011;41730;51.960;20.158;2022-09-04T04:10:10;8.80;;;5.80;;
55800;SDS011;41730;51.960;20.158;2022-09-04T04:15:31;9.50;;;5.20;;
55800;SDS011;41730;51.960;20.158;2022-09-04T04:18:26;7.20;;;5.10;;
55800;SDS011;41730;51.960;20.158;2022-09-04T04:21:10;10.00;;;5.30;;
55800;SDS011;41730;51.960;20.158;2022-09-04T04:24:01;6.60;;;4.50;;
55800;SDS011;41730;51.960;20.158;2022-09-04T04:26:58;8.80;;;5.70;;
55800;SDS011;41730;51.960;20.158;2022-09-04T04:29:45;8.20;;;5.00;;
55800;SDS011;41730;51.960;20.158;2022-09-04T04:32:35;9.90;;;5.40;;
55800;SDS011;41730;51.960;20.158;2022-09-04T04:35:31;8.30;;;4.80;;
55800;SDS011;41730;51.960;20.158;2022-09-04T04:41:18;8.30;;;5.80;;
55800;SDS011;41730;51.960;20.158;2022-09-04T04:44:24;8.40;;;5.10;;
55800;SDS011;41730;51.960;20.158;2022-09-04T04:47:16;11.60;;;5.50;;
55800;SDS011;41730;51.960;20.158;2022-09-04T04:50:07;6.70;;;5.00;;
55800;SDS011;41730;51.960;20.158;2022-09-04T04:52:48;7.80;;;5.20;;
55800;SDS011;41730;51.960;20.158;2022-09-04T04:55:39;7.10;;;5.10;;
55800;SDS011;41730;51.960;20.158;2022-09-04T05:01:22;7.90;;;5.20;;
55800;SDS011;41730;51.960;20.158;2022-09-04T05:04:05;8.50;;;5.50;;
55800;SDS011;41730;51.960;20.158;2022-09-04T05:06:46;8.00;;;5.20;;
55800;SDS011;41730;51.960;20.158;2022-09-04T05:09:34;7.70;;;5.00;;
55800;SDS011;41730;51.960;20.158;2022-09-04T05:12:14;7.90;;;5.30;;
55800;SDS011;41730;51.960;20.158;2022-09-04T05:14:56;9.60;;;5.20;;
55800;SDS011;41730;51.960;20.158;2022-09-04T05:17:34;7.50;;;4.80;;
55800;SDS011;41730;51.960;20.158;2022-09-04T05:20:28;11.20;;;6.00;;
55800;SDS011;41730;51.960;20.158;2022-09-04T05:23:13;9.10;;;5.50;;
55800;SDS011;41730;51.960;20.158;2022-09-04T05:25:58;8.70;;;5.40;;
55800;SDS011;41730;51.960;20.158;2022-09-04T05:28:43;11.10;;;5.20;;
55800;SDS011;41730;51.960;20.158;2022-09-04T05:31:23;8.70;;;5.50;;
55800;SDS011;41730;51.960;20.158;2022-09-04T05:34:09;9.90;;;6.10;;
55800;SDS011;41730;51.960;20.158;2022-09-04T05:36:47;8.50;;;5.80;;
55800;SDS011;41730;51.960;20.158;2022-09-04T05:39:27;7.30;;;4.90;;
55800;SDS011;41730;51.960;20.158;2022-09-04T05:42:12;11.70;;;5.30;;
55800;SDS011;41730;51.960;20.158;2022-09-04T05:45:04;8.30;;;5.30;;
55800;SDS011;41730;51.960;20.158;2022-09-04T05:47:49;7.20;;;5.30;;
55800;SDS011;41730;51.960;20.158;2022-09-04T05:50:34;7.50;;;5.00;;
55800;SDS011;41730;51.960;20.158;2022-09-04T05:53:24;7.50;;;4.90;;
55800;SDS011;41730;51.960;20.158;2022-09-04T05:58:51;6.60;;;4.60;;
55800;SDS011;41730;51.960;20.158;2022-09-04T06:01:36;6.70;;;4.40;;
55800;SDS011;41730;51.960;20.158;2022-09-04T06:04:33;7.00;;;4.60;;
55800;SDS011;41730;51.960;20.158;2022-09-04T06:07:28;5.80;;;4.10;;
55800;SDS011;41730;51.960;20.158;2022-09-04T06:10:07;6.10;;;3.90;;
55800;SDS011;41730;51.960;20.158;2022-09-04T06:12:59;4.80;;;3.70;;
55800;SDS011;41730;51.960;20.158;2022-09-04T06:16:04;4.80;;;3.90;;
55800;SDS011;41730;51.960;20.158;2022-09-04T06:18:50;7.90;;;4.60;;
55800;SDS011;41730;51.960;20.158;2022-09-04T06:21:47;6.80;;;4.20;;
55800;SDS011;41730;51.960;20.158;2022-09-04T06:24:37;6.90;;;4.70;;
55800;SDS011;41730;51.960;20.158;2022-09-04T06:27:35;7.40;;;4.10;;
55800;SDS011;41730;51.960;20.158;2022-09-04T06:30:19;5.50;;;4.10;;
55800;SDS011;41730;51.960;20.158;2022-09-04T06:35:50;8.10;;;4.40;;
55800;SDS011;41730;51.960;20.158;2022-09-04T06:38:40;7.60;;;4.40;;
55800;SDS011;41730;51.960;20.158;2022-09-04T06:41:31;6.20;;;4.50;;
55800;SDS011;41730;51.960;20.158;2022-09-04T06:44:14;7.10;;;4.40;;
55800;SDS011;41730;51.960;20.158;2022-09-04T06:46:55;5.50;;;3.80;;
55800;SDS011;41730;51.960;20.158;2022-09-04T06:49:50;6.70;;;3.80;;
55800;SDS011;41730;51.960;20.158;2022-09-04T06:52:33;5.20;;;3.40;;
55800;SDS011;41730;51.960;20.158;2022-09-04T06:55:12;6.90;;;3.30;;
55800;SDS011;41730;51.960;20.158;2022-09-04T06:58:00;5.20;;;3.50;;
55800;SDS011;41730;51.960;20.158;2022-09-04T07:00:45;5.80;;;3.10;;
55800;SDS011;41730;51.960;20.158;2022-09-04T07:03:31;5.20;;;3.30;;
55800;SDS011;41730;51.960;20.158;2022-09-04T07:06:15;6.70;;;3.00;;
55800;SDS011;41730;51.960;20.158;2022-09-04T07:08:56;4.20;;;2.90;;
55800;SDS011;41730;51.960;20.158;2022-09-04T07:11:37;3.80;;;2.70;;
55800;SDS011;41730;51.960;20.158;2022-09-04T07:14:29;3.50;;;2.50;;
55800;SDS011;41730;51.960;20.158;2022-09-04T07:17:16;6.30;;;2.70;;
55800;SDS011;41730;51.960;20.158;2022-09-04T07:20:07;4.00;;;2.60;;
55800;SDS011;41730;51.960;20.158;2022-09-04T07:22:49;4.00;;;2.80;;
55800;SDS011;41730;51.960;20.158;2022-09-04T07:25:42;3.80;;;2.80;;
55800;SDS011;41730;51.960;20.158;2022-09-04T07:28:31;4.30;;;2.70;;
55800;SDS011;41730;51.960;20.158;2022-09-04T07:31:14;3.20;;;2.30;;
55800;SDS011;41730;51.960;20.158;2022-09-04T07:33:54;3.70;;;2.30;;
55800;SDS011;41730;51.960;20.158;2022-09-04T07:36:32;4.40;;;2.50;;
55800;SDS011;41730;51.960;20.158;2022-09-04T07:39:12;4.50;;;2.80;;
55800;SDS011;41730;51.960;20.158;2022-09-04T07:41:50;4.70;;;2.40;;
55800;SDS011;41730;51.960;20.158;2022-09-04T07:44:28;3.20;;;2.30;;
55800;SDS011;41730;51.960;20.158;2022-09-04T07:47:09;3.30;;;2.10;;
55800;SDS011;41730;51.960;20.158;2022-09-04T07:49:54;4.50;;;2.30;;
55800;SDS011;41730;51.960;20.158;2022-09-04T07:55:36;3.90;;;2.20;;
55800;SDS011;41730;51.960;20.158;2022-09-04T07:58:25;4.60;;;2.10;;
55800;SDS011;41730;51.960;20.158;2022-09-04T08:01:21;4.40;;;2.20;;
55800;SDS011;41730;51.960;20.158;2022-09-04T08:07:10;3.70;;;2.30;;
55800;SDS011;41730;51.960;20.158;2022-09-04T08:13:01;3.70;;;1.80;;
55800;SDS011;41730;51.960;20.158;2022-09-04T08:15:42;4.10;;;2.60;;
55800;SDS011;41730;51.960;20.158;2022-09-04T08:18:27;5.20;;;2.40;;
55800;SDS011;41730;51.960;20.158;2022-09-04T08:21:10;3.50;;;1.80;;
55800;SDS011;41730;51.960;20.158;2022-09-04T08:23:58;3.60;;;2.50;;
55800;SDS011;41730;51.960;20.158;2022-09-04T08:26:49;4.60;;;2.20;;
55800;SDS011;41730;51.960;20.158;2022-09-04T08:29:45;3.60;;;2.40;;
55800;SDS011;41730;51.960;20.158;2022-09-04T08:32:33;4.10;;;2.40;;
55800;SDS011;41730;51.960;20.158;2022-09-04T08:35:25;4.10;;;2.60;;
55800;SDS011;41730;51.960;20.158;2022-09-04T08:38:11;4.10;;;2.50;;
55800;SDS011;41730;51.960;20.158;2022-09-04T08:41:03;3.80;;;2.40;;
55800;SDS011;41730;51.960;20.158;2022-09-04T08:50:29;3.50;;;2.60;;
55800;SDS011;41730;51.960;20.158;2022-09-04T08:56:27;2.90;;;2.10;;
55800;SDS011;41730;51.960;20.158;2022-09-04T09:02:24;3.40;;;2.20;;
55800;SDS011;41730;51.960;20.158;2022-09-04T09:05:21;3.10;;;1.80;;
55800;SDS011;41730;51.960;20.158;2022-09-04T09:18:13;3.10;;;2.10;;
55800;SDS011;41730;51.960;20.158;2022-09-04T09:21:06;3.70;;;2.10;;
55800;SDS011;41730;51.960;20.158;2022-09-04T09:23:54;3.50;;;2.30;;
55800;SDS011;41730;51.960;20.158;2022-09-04T09:26:48;4.20;;;2.10;;
55800;SDS011;41730;51.960;20.158;2022-09-04T09:29:36;3.80;;;2.00;;
55800;SDS011;41730;51.960;20.158;2022-09-04T09:35:53;3.40;;;2.10;;
55800;SDS011;41730;51.960;20.158;2022-09-04T09:38:49;5.90;;;2.00;;
55800;SDS011;41730;51.960;20.158;2022-09-04T09:48:03;4.60;;;2.10;;
55800;SDS011;41730;51.960;20.158;2022-09-04T09:51:11;2.90;;;1.90;;
55800;SDS011;41730;51.960;20.158;2022-09-04T09:54:21;2.60;;;1.60;;
55800;SDS011;41730;51.960;20.158;2022-09-04T10:00:14;3.30;;;2.00;;
55800;SDS011;41730;51.960;20.158;2022-09-04T10:06:07;4.10;;;1.80;;
55800;SDS011;41730;51.960;20.158;2022-09-04T10:12:22;3.70;;;2.00;;
55800;SDS011;41730;51.960;20.158;2022-09-04T10:15:39;2.80;;;1.60;;
55800;SDS011;41730;51.960;20.158;2022-09-04T10:18:39;4.50;;;2.10;;
55800;SDS011;41730;51.960;20.158;2022-09-04T10:24:58;3.60;;;2.00;;
55800;SDS011;41730;51.960;20.158;2022-09-04T10:27:52;2.80;;;1.80;;
55800;SDS011;41730;51.960;20.158;2022-09-04T10:30:56;3.60;;;2.30;;
55800;SDS011;41730;51.960;20.158;2022-09-04T10:33:50;2.80;;;1.80;;
55800;SDS011;41730;51.960;20.158;2022-09-04T10:36:41;3.40;;;2.30;;
55800;SDS011;41730;51.960;20.158;2022-09-04T10:39:24;3.70;;;2.00;;
55800;SDS011;41730;51.960;20.158;2022-09-04T10:42:22;3.50;;;2.10;;
55800;SDS011;41730;51.960;20.158;2022-09-04T10:45:12;3.30;;;1.90;;
55800;SDS011;41730;51.960;20.158;2022-09-04T10:48:05;3.00;;;1.90;;
55800;SDS011;41730;51.960;20.158;2022-09-04T10:54:22;3.50;;;2.00;;
55800;SDS011;41730;51.960;20.158;2022-09-04T10:57:15;3.60;;;2.20;;
55800;SDS011;41730;51.960;20.158;2022-09-04T11:00:05;3.70;;;2.40;;
55800;SDS011;41730;51.960;20.158;2022-09-04T11:06:01;3.10;;;2.00;;
55800;SDS011;41730;51.960;20.158;2022-09-04T11:09:01;4.10;;;2.30;;
55800;SDS011;41730;51.960;20.158;2022-09-04T11:12:09;3.40;;;2.00;;
55800;SDS011;41730;51.960;20.158;2022-09-04T11:15:12;3.90;;;2.40;;
55800;SDS011;41730;51.960;20.158;2022-09-04T11:27:55;3.60;;;2.30;;
55800;SDS011;41730;51.960;20.158;2022-09-04T11:30:40;3.20;;;2.20;;
55800;SDS011;41730;51.960;20.158;2022-09-04T11:40:05;3.20;;;1.80;;
55800;SDS011;41730;51.960;20.158;2022-09-04T11:42:58;3.90;;;2.10;;
55800;SDS011;41730;51.960;20.158;2022-09-04T11:45:46;5.10;;;2.40;;
55800;SDS011;41730;51.960;20.158;2022-09-04T11:57:59;5.50;;;2.40;;
55800;SDS011;41730;51.960;20.158;2022-09-04T12:00:45;3.40;;;2.50;;
55800;SDS011;41730;51.960;20.158;2022-09-04T12:03:32;3.50;;;2.40;;
55800;SDS011;41730;51.960;20.158;2022-09-04T12:06:25;2.90;;;2.20;;
55800;SDS011;41730;51.960;20.158;2022-09-04T12:09:09;3.30;;;2.40;;
55800;SDS011;41730;51.960;20.158;2022-09-04T12:12:02;4.10;;;2.30;;
55800;SDS011;41730;51.960;20.158;2022-09-04T12:14:58;5.40;;;2.60;;
55800;SDS011;41730;51.960;20.158;2022-09-04T12:17:52;5.60;;;2.80;;
55800;SDS011;41730;51.960;20.158;2022-09-04T12:27:06;4.10;;;2.60;;
55800;SDS011;41730;51.960;20.158;2022-09-04T12:30:10;3.70;;;2.60;;
55800;SDS011;41730;51.960;20.158;2022-09-04T12:33:01;4.70;;;2.60;;
55800;SDS011;41730;51.960;20.158;2022-09-04T12:36:01;4.40;;;2.40;;
55800;SDS011;41730;51.960;20.158;2022-09-04T12:42:15;3.20;;;2.20;;
55800;SDS011;41730;51.960;20.158;2022-09-04T12:44:54;3.90;;;2.50;;
55800;SDS011;41730;51.960;20.158;2022-09-04T12:47:42;6.10;;;2.60;;
55800;SDS011;41730;51.960;20.158;2022-09-04T12:50:28;3.50;;;2.50;;
55800;SDS011;41730;51.960;20.158;2022-09-04T12:56:21;3.40;;;2.20;;
55800;SDS011;41730;51.960;20.158;2022-09-04T12:59:02;3.90;;;2.70;;
55800;SDS011;41730;51.960;20.158;2022-09-04T13:01:48;3.80;;;2.30;;
55800;SDS011;41730;51.960;20.158;2022-09-04T13:04:31;3.50;;;2.50;;
55800;SDS011;41730;51.960;20.158;2022-09-04T13:07:13;4.00;;;2.50;;
55800;SDS011;41730;51.960;20.158;2022-09-04T13:10:01;4.50;;;2.50;;
55800;SDS011;41730;51.960;20.158;2022-09-04T13:12:42;3.60;;;2.50;;
55800;SDS011;41730;51.960;20.158;2022-09-04T13:15:24;3.90;;;2.40;;
55800;SDS011;41730;51.960;20.158;2022-09-04T13:18:05;4.40;;;2.70;;
55800;SDS011;41730;51.960;20.158;2022-09-04T13:20:46;3.50;;;2.50;;
55800;SDS011;41730;51.960;20.158;2022-09-04T13:23:33;5.10;;;2.20;;
55800;SDS011;41730;51.960;20.158;2022-09-04T13:26:25;4.20;;;2.40;;
55800;SDS011;41730;51.960;20.158;2022-09-04T13:29:17;4.40;;;2.60;;
55800;SDS011;41730;51.960;20.158;2022-09-04T13:32:10;4.50;;;2.40;;
55800;SDS011;41730;51.960;20.158;2022-09-04T13:35:04;5.00;;;2.60;;
55800;SDS011;41730;51.960;20.158;2022-09-04T13:37:50;4.60;;;2.40;;
55800;SDS011;41730;51.960;20.158;2022-09-04T13:40:39;3.60;;;2.40;;
55800;SDS011;41730;51.960;20.158;2022-09-04T13:43:33;5.30;;;2.40;;
55800;SDS011;41730;51.960;20.158;2022-09-04T13:46:16;3.40;;;2.50;;
55800;SDS011;41730;51.960;20.158;2022-09-04T13:48:51;3.90;;;2.40;;
55800;SDS011;41730;51.960;20.158;2022-09-04T13:51:28;4.30;;;2.40;;
55800;SDS011;41730;51.960;20.158;2022-09-04T13:54:05;3.20;;;2.20;;
55800;SDS011;41730;51.960;20.158;2022-09-04T13:56:43;3.70;;;2.20;;
55800;SDS011;41730;51.960;20.158;2022-09-04T13:59:21;3.70;;;2.30;;
55800;SDS011;41730;51.960;20.158;2022-09-04T14:01:56;5.00;;;2.10;;
55800;SDS011;41730;51.960;20.158;2022-09-04T14:04:35;4.10;;;2.40;;
55800;SDS011;41730;51.960;20.158;2022-09-04T14:07:12;4.50;;;2.30;;
55800;SDS011;41730;51.960;20.158;2022-09-04T14:09:53;4.40;;;2.50;;
55800;SDS011;41730;51.960;20.158;2022-09-04T14:12:35;3.30;;;2.30;;
55800;SDS011;41730;51.960;20.158;2022-09-04T14:15:25;4.10;;;2.50;;
55800;SDS011;41730;51.960;20.158;2022-09-04T14:18:20;4.80;;;2.30;;
55800;SDS011;41730;51.960;20.158;2022-09-04T14:21:14;3.20;;;2.10;;
55800;SDS011;41730;51.960;20.158;2022-09-04T14:23:54;3.10;;;2.20;;
55800;SDS011;41730;51.960;20.158;2022-09-04T14:26:37;3.20;;;2.10;;
55800;SDS011;41730;51.960;20.158;2022-09-04T14:29:21;6.80;;;2.80;;
55800;SDS011;41730;51.960;20.158;2022-09-04T14:32:07;2.90;;;2.30;;
55800;SDS011;41730;51.960;20.158;2022-09-04T14:34:50;3.50;;;2.50;;
55800;SDS011;41730;51.960;20.158;2022-09-04T14:37:34;3.90;;;2.50;;
55800;SDS011;41730;51.960;20.158;2022-09-04T14:40:21;5.20;;;2.40;;
55800;SDS011;41730;51.960;20.158;2022-09-04T14:43:03;3.40;;;2.20;;
55800;SDS011;41730;51.960;20.158;2022-09-04T14:48:37;3.60;;;2.40;;
55800;SDS011;41730;51.960;20.158;2022-09-04T14:51:15;3.70;;;2.30;;
55800;SDS011;41730;51.960;20.158;2022-09-04T14:54:01;3.90;;;2.50;;
55800;SDS011;41730;51.960;20.158;2022-09-04T14:59:12;7.90;;;3.30;;
55800;SDS011;41730;51.960;20.158;2022-09-04T15:01:58;4.00;;;2.70;;
55800;SDS011;41730;51.960;20.158;2022-09-04T15:04:41;4.30;;;2.30;;
55800;SDS011;41730;51.960;20.158;2022-09-04T15:07:30;5.40;;;2.90;;
55800;SDS011;41730;51.960;20.158;2022-09-04T15:10:21;4.70;;;2.50;;
55800;SDS011;41730;51.960;20.158;2022-09-04T15:13:18;3.40;;;2.30;;
55800;SDS011;41730;51.960;20.158;2022-09-04T15:16:06;3.70;;;2.30;;
55800;SDS011;41730;51.960;20.158;2022-09-04T15:18:49;3.50;;;2.30;;
55800;SDS011;41730;51.960;20.158;2022-09-04T15:21:29;3.40;;;2.20;;
55800;SDS011;41730;51.960;20.158;2022-09-04T15:24:12;3.70;;;2.60;;
55800;SDS011;41730;51.960;20.158;2022-09-04T15:26:55;3.80;;;2.20;;
55800;SDS011;41730;51.960;20.158;2022-09-04T15:29:36;5.30;;;2.40;;
55800;SDS011;41730;51.960;20.158;2022-09-04T15:32:19;3.40;;;2.30;;
55800;SDS011;41730;51.960;20.158;2022-09-04T15:35:03;3.90;;;2.40;;
55800;SDS011;41730;51.960;20.158;2022-09-04T15:37:43;4.30;;;2.40;;
55800;SDS011;41730;51.960;20.158;2022-09-04T15:40:21;3.50;;;2.40;;
55800;SDS011;41730;51.960;20.158;2022-09-04T15:43:01;3.70;;;2.50;;
55800;SDS011;41730;51.960;20.158;2022-09-04T15:45:41;3.60;;;2.30;;
55800;SDS011;41730;51.960;20.158;2022-09-04T15:48:26;3.60;;;2.40;;
55800;SDS011;41730;51.960;20.158;2022-09-04T15:51:14;5.10;;;2.10;;
55800;SDS011;41730;51.960;20.158;2022-09-04T15:54:05;3.30;;;2.00;;
55800;SDS011;41730;51.960;20.158;2022-09-04T15:56:44;4.80;;;2.30;;
55800;SDS011;41730;51.960;20.158;2022-09-04T15:59:28;6.50;;;2.60;;
55800;SDS011;41730;51.960;20.158;2022-09-04T16:02:19;5.10;;;2.60;;
55800;SDS011;41730;51.960;20.158;2022-09-04T16:05:12;3.70;;;2.40;;
55800;SDS011;41730;51.960;20.158;2022-09-04T16:07:53;4.00;;;2.50;;
55800;SDS011;41730;51.960;20.158;2022-09-04T16:10:40;4.40;;;2.60;;
55800;SDS011;41730;51.960;20.158;2022-09-04T16:13:37;5.90;;;2.70;;
55800;SDS011;41730;51.960;20.158;2022-09-04T16:16:15;5.00;;;2.40;;
55800;SDS011;41730;51.960;20.158;2022-09-04T16:18:54;6.60;;;2.60;;
55800;SDS011;41730;51.960;20.158;2022-09-04T16:21:38;4.40;;;2.70;;
55800;SDS011;41730;51.960;20.158;2022-09-04T16:24:17;3.80;;;2.20;;
55800;SDS011;41730;51.960;20.158;2022-09-04T16:26:57;5.00;;;2.70;;
55800;SDS011;41730;51.960;20.158;2022-09-04T16:29:34;4.80;;;2.70;;
55800;SDS011;41730;51.960;20.158;2022-09-04T16:32:09;5.60;;;3.50;;
55800;SDS011;41730;51.960;20.158;2022-09-04T16:34:48;6.40;;;3.90;;
55800;SDS011;41730;51.960;20.158;2022-09-04T16:37:26;6.20;;;3.50;;
55800;SDS011;41730;51.960;20.158;2022-09-04T16:40:11;6.30;;;3.90;;
55800;SDS011;41730;51.960;20.158;2022-09-04T16:42:52;5.70;;;2.90;;
55800;SDS011;41730;51.960;20.158;2022-09-04T16:45:29;4.60;;;2.80;;
55800;SDS011;41730;51.960;20.158;2022-09-04T16:48:09;5.20;;;3.40;;
55800;SDS011;41730;51.960;20.158;2022-09-04T16:51:03;7.10;;;4.00;;
55800;SDS011;41730;51.960;20.158;2022-09-04T16:54:02;7.80;;;4.60;;
55800;SDS011;41730;51.960;20.158;2022-09-04T16:56:38;7.40;;;4.50;;
55800;SDS011;41730;51.960;20.158;2022-09-04T16:59:23;7.20;;;4.00;;
55800;SDS011;41730;51.960;20.158;2022-09-04T17:02:02;7.80;;;4.20;;
55800;SDS011;41730;51.960;20.158;2022-09-04T17:04:46;8.80;;;4.30;;
55800;SDS011;41730;51.960;20.158;2022-09-04T17:07:22;7.00;;;4.40;;
55800;SDS011;41730;51.960;20.158;2022-09-04T17:10:01;7.00;;;4.30;;
55800;SDS011;41730;51.960;20.158;2022-09-04T17:12:41;10.10;;;4.70;;
55800;SDS011;41730;51.960;20.158;2022-09-04T17:15:22;7.40;;;4.70;;
55800;SDS011;41730;51.960;20.158;2022-09-04T17:18:01;9.10;;;5.00;;
55800;SDS011;41730;51.960;20.158;2022-09-04T17:20:38;8.00;;;5.10;;
55800;SDS011;41730;51.960;20.158;2022-09-04T17:23:36;11.80;;;5.60;;
55800;SDS011;41730;51.960;20.158;2022-09-04T17:26:36;9.60;;;6.00;;
55800;SDS011;41730;51.960;20.158;2022-09-04T17:29:35;8.00;;;5.50;;
55800;SDS011;41730;51.960;20.158;2022-09-04T17:32:19;10.80;;;6.50;;
55800;SDS011;41730;51.960;20.158;2022-09-04T17:35:18;11.20;;;6.10;;
55800;SDS011;41730;51.960;20.158;2022-09-04T17:38:18;7.80;;;5.30;;
55800;SDS011;41730;51.960;20.158;2022-09-04T17:41:22;10.50;;;6.90;;
55800;SDS011;41730;51.960;20.158;2022-09-04T17:47:22;8.70;;;5.60;;
55800;SDS011;41730;51.960;20.158;2022-09-04T17:50:00;6.60;;;5.20;;
55800;SDS011;41730;51.960;20.158;2022-09-04T17:52:54;7.20;;;5.30;;
55800;SDS011;41730;51.960;20.158;2022-09-04T17:55:29;8.40;;;5.10;;
55800;SDS011;41730;51.960;20.158;2022-09-04T17:58:22;7.30;;;5.00;;
55800;SDS011;41730;51.960;20.158;2022-09-04T18:01:04;6.80;;;4.60;;
55800;SDS011;41730;51.960;20.158;2022-09-04T18:03:45;6.40;;;4.40;;
55800;SDS011;41730;51.960;20.158;2022-09-04T18:06:52;7.80;;;3.90;;
55800;SDS011;41730;51.960;20.158;2022-09-04T18:09:53;11.80;;;4.20;;
55800;SDS011;41730;51.960;20.158;2022-09-04T18:12:38;8.50;;;4.10;;
55800;SDS011;41730;51.960;20.158;2022-09-04T18:15:17;10.50;;;3.60;;
55800;SDS011;41730;51.960;20.158;2022-09-04T18:18:04;6.60;;;3.70;;
55800;SDS011;41730;51.960;20.158;2022-09-04T18:20:42;8.00;;;3.60;;
55800;SDS011;41730;51.960;20.158;2022-09-04T18:23:33;6.10;;;3.20;;
55800;SDS011;41730;51.960;20.158;2022-09-04T18:26:21;8.20;;;3.20;;
55800;SDS011;41730;51.960;20.158;2022-09-04T18:29:20;5.50;;;3.40;;
55800;SDS011;41730;51.960;20.158;2022-09-04T18:32:41;8.00;;;3.90;;
55800;SDS011;41730;51.960;20.158;2022-09-04T18:35:45;6.30;;;3.20;;
55800;SDS011;41730;51.960;20.158;2022-09-04T18:39:01;6.50;;;3.40;;
55800;SDS011;41730;51.960;20.158;2022-09-04T18:41:55;6.00;;;3.30;;